createdAt,value
2017-10-31T00:00:10.092Z,55.70
2017-10-31T00:00:41.793Z,55.71
2017-10-31T00:01:13.442Z,55.73
2017-10-31T00:01:45.097Z,55.75
2017-10-31T00:02:16.745Z,55.77
2017-10-31T00:02:48.394Z,55.80
2017-10-31T00:03:20.041Z,55.85
2017-10-31T00:03:51.695Z,55.91
2017-10-31T00:04:23.354Z,55.97
2017-10-31T00:04:55.230Z,56.00
2017-10-31T00:05:26.886Z,55.98
2017-10-31T00:05:58.606Z,55.98
2017-10-31T00:06:30.298Z,55.94
2017-10-31T00:07:01.954Z,56.06
2017-10-31T00:07:33.741Z,56.09
2017-10-31T00:08:05.393Z,56.03
2017-10-31T00:08:37.037Z,55.99
2017-10-31T00:09:08.725Z,56.08
2017-10-31T00:09:40.369Z,56.06
2017-10-31T00:10:12.257Z,56.08
2017-10-31T00:10:43.916Z,56.07
2017-10-31T00:11:15.566Z,56.10
2017-10-31T00:11:47.214Z,56.18
2017-10-31T00:12:18.907Z,56.15
2017-10-31T00:12:50.775Z,56.18
2017-10-31T00:13:22.425Z,56.27
2017-10-31T00:13:54.078Z,56.30
2017-10-31T00:14:25.725Z,56.32
2017-10-31T00:14:57.369Z,56.33
2017-10-31T00:15:29.013Z,56.52
2017-10-31T00:16:00.662Z,56.29
2017-10-31T00:16:32.544Z,56.51
2017-10-31T00:17:04.216Z,56.54
2017-10-31T00:17:35.866Z,56.46
2017-10-31T00:18:07.513Z,56.54
2017-10-31T00:18:39.197Z,56.89
2017-10-31T00:19:10.846Z,57.04
2017-10-31T00:19:42.733Z,57.12
2017-10-31T00:20:14.386Z,57.06
2017-10-31T00:20:46.037Z,57.03
2017-10-31T00:21:17.689Z,57.02
2017-10-31T00:21:49.608Z,57.03
2017-10-31T00:22:21.257Z,57.10
2017-10-31T00:22:52.905Z,56.98
2017-10-31T00:23:24.550Z,57.13
2017-10-31T00:23:56.205Z,57.06
2017-10-31T00:24:27.869Z,57.06
2017-10-31T00:24:59.514Z,57.21
2017-10-31T00:25:31.166Z,57.11
2017-10-31T00:26:02.818Z,57.31
2017-10-31T00:26:34.472Z,57.28
2017-10-31T00:27:06.157Z,57.32
2017-10-31T00:27:37.805Z,57.48
2017-10-31T00:28:09.455Z,57.61
2017-10-31T00:28:41.117Z,57.63
2017-10-31T00:29:12.782Z,57.58
2017-10-31T00:29:44.442Z,57.66
2017-10-31T00:30:16.094Z,57.80
2017-10-31T00:30:47.754Z,57.75
2017-10-31T00:31:19.470Z,57.88
2017-10-31T00:31:51.126Z,57.92
2017-10-31T00:32:22.778Z,58.02
2017-10-31T00:32:54.429Z,57.97
2017-10-31T00:33:26.078Z,58.17
2017-10-31T00:33:57.738Z,58.21
2017-10-31T00:34:29.629Z,58.13
2017-10-31T00:35:01.286Z,58.21
2017-10-31T00:35:32.934Z,58.14
2017-10-31T00:36:04.585Z,58.26
2017-10-31T00:36:36.229Z,58.29
2017-10-31T00:37:07.874Z,58.54
2017-10-31T00:37:39.521Z,58.28
2017-10-31T00:38:11.176Z,58.40
2017-10-31T00:38:42.822Z,58.52
2017-10-31T00:39:14.713Z,58.59
2017-10-31T00:39:46.516Z,58.61
2017-10-31T00:40:18.161Z,58.53
2017-10-31T00:40:49.863Z,58.55
2017-10-31T00:41:21.513Z,58.64
2017-10-31T00:41:53.161Z,58.64
2017-10-31T00:42:24.833Z,58.62
2017-10-31T00:42:56.823Z,58.61
2017-10-31T00:43:28.474Z,58.78
2017-10-31T00:44:00.121Z,58.81
2017-10-31T00:44:31.809Z,58.89
2017-10-31T00:45:03.699Z,58.76
2017-10-31T00:45:35.349Z,58.70
2017-10-31T00:46:07.003Z,58.96
2017-10-31T00:46:38.824Z,58.92
2017-10-31T00:47:10.566Z,58.97
2017-10-31T00:47:42.519Z,58.98
2017-10-31T00:48:14.209Z,59.04
2017-10-31T00:48:45.861Z,58.98
2017-10-31T00:49:17.517Z,58.95
2017-10-31T00:49:49.165Z,59.10
2017-10-31T00:50:21.032Z,58.99
2017-10-31T00:50:52.730Z,59.03
2017-10-31T00:51:24.616Z,58.86
2017-10-31T00:51:56.269Z,58.99
2017-10-31T00:52:27.922Z,58.91
2017-10-31T00:52:59.566Z,58.98
2017-10-31T00:53:31.222Z,59.01
2017-10-31T00:54:02.885Z,59.09
2017-10-31T00:54:34.929Z,59.13
2017-10-31T00:55:06.578Z,59.22
2017-10-31T00:55:38.224Z,59.38
2017-10-31T00:56:10.019Z,59.28
2017-10-31T00:56:41.859Z,59.23
2017-10-31T00:57:13.609Z,59.27
2017-10-31T00:57:45.450Z,59.15
2017-10-31T00:58:17.200Z,59.20
2017-10-31T00:58:48.849Z,59.31
2017-10-31T00:59:20.494Z,59.37
2017-10-31T00:59:52.151Z,59.24
2017-10-31T01:00:24.042Z,59.41
2017-10-31T01:00:55.721Z,59.37
2017-10-31T01:01:27.369Z,59.39
2017-10-31T01:01:59.021Z,59.41
2017-10-31T01:02:30.674Z,59.52
2017-10-31T01:03:02.321Z,59.38
2017-10-31T01:03:33.977Z,59.47
2017-10-31T01:04:05.625Z,59.42
2017-10-31T01:04:37.277Z,59.56
2017-10-31T01:05:09.160Z,59.49
2017-10-31T01:05:40.850Z,59.53
2017-10-31T01:06:12.498Z,59.58
2017-10-31T01:06:44.399Z,59.71
2017-10-31T01:07:16.094Z,59.66
2017-10-31T01:07:47.741Z,59.58
2017-10-31T01:08:19.619Z,59.56
2017-10-31T01:08:51.574Z,59.57
2017-10-31T01:09:23.242Z,59.48
2017-10-31T01:09:54.898Z,59.59
2017-10-31T01:10:26.554Z,59.59
2017-10-31T01:10:58.206Z,59.81
2017-10-31T01:11:29.858Z,59.75
2017-10-31T01:12:01.688Z,59.64
2017-10-31T01:12:33.389Z,59.69
2017-10-31T01:13:05.034Z,59.62
2017-10-31T01:13:36.681Z,59.83
2017-10-31T01:14:08.327Z,59.63
2017-10-31T01:14:39.978Z,59.69
2017-10-31T01:15:11.625Z,59.71
2017-10-31T01:15:43.274Z,59.83
2017-10-31T01:16:14.926Z,59.75
2017-10-31T01:16:46.569Z,59.70
2017-10-31T01:17:18.460Z,59.79
2017-10-31T01:17:50.408Z,59.80
2017-10-31T01:18:22.061Z,59.86
2017-10-31T01:18:53.709Z,59.95
2017-10-31T01:19:25.540Z,59.71
2017-10-31T01:19:57.197Z,59.77
2017-10-31T01:20:28.924Z,59.64
2017-10-31T01:21:00.574Z,59.58
2017-10-31T01:21:32.225Z,59.59
2017-10-31T01:22:03.874Z,59.59
2017-10-31T01:22:35.525Z,59.63
2017-10-31T01:23:07.375Z,59.57
2017-10-31T01:23:39.026Z,59.57
2017-10-31T01:24:11.138Z,59.58
2017-10-31T01:24:42.790Z,59.79
2017-10-31T01:25:14.442Z,59.71
2017-10-31T01:25:46.103Z,59.65
2017-10-31T01:26:17.753Z,59.78
2017-10-31T01:26:49.405Z,59.67
2017-10-31T01:27:21.191Z,59.65
2017-10-31T01:27:52.841Z,59.60
2017-10-31T01:28:24.546Z,59.66
2017-10-31T01:28:56.424Z,59.57
2017-10-31T01:29:28.078Z,59.70
2017-10-31T01:29:59.730Z,59.60
2017-10-31T01:30:31.415Z,59.53
2017-10-31T01:31:03.300Z,59.47
2017-10-31T01:31:35.244Z,59.45
2017-10-31T01:32:07.154Z,59.59
2017-10-31T01:32:38.806Z,59.69
2017-10-31T01:33:10.478Z,59.68
2017-10-31T01:33:42.174Z,59.67
2017-10-31T01:34:13.828Z,59.65
2017-10-31T01:34:45.714Z,59.67
2017-10-31T01:35:17.366Z,59.52
2017-10-31T01:35:49.026Z,59.46
2017-10-31T01:36:20.674Z,59.57
2017-10-31T01:36:52.322Z,59.49
2017-10-31T01:37:23.973Z,59.54
2017-10-31T01:37:55.625Z,59.17
2017-10-31T01:38:27.514Z,59.46
2017-10-31T01:38:59.210Z,59.56
2017-10-31T01:39:30.858Z,59.50
2017-10-31T01:40:02.522Z,59.44
2017-10-31T01:40:34.389Z,59.14
2017-10-31T01:41:06.338Z,59.21
2017-10-31T01:41:38.287Z,59.28
2017-10-31T01:42:09.942Z,59.35
2017-10-31T01:42:41.626Z,59.54
2017-10-31T01:43:13.278Z,59.67
2017-10-31T01:43:44.929Z,59.76
2017-10-31T01:44:16.808Z,59.66
2017-10-31T01:44:48.459Z,59.51
2017-10-31T01:45:20.105Z,59.45
2017-10-31T01:45:51.759Z,59.48
2017-10-31T01:46:23.417Z,59.53
2017-10-31T01:46:55.072Z,59.53
2017-10-31T01:47:26.963Z,59.47
2017-10-31T01:47:58.613Z,59.50
2017-10-31T01:48:30.267Z,59.47
2017-10-31T01:49:01.910Z,59.33
2017-10-31T01:49:33.730Z,59.55
2017-10-31T01:50:05.478Z,59.66
2017-10-31T01:50:37.131Z,59.77
2017-10-31T01:51:08.822Z,59.70
2017-10-31T01:51:40.713Z,59.61
2017-10-31T01:52:12.372Z,59.68
2017-10-31T01:52:44.022Z,59.80
2017-10-31T01:53:15.705Z,59.79
2017-10-31T01:53:47.432Z,59.66
2017-10-31T01:54:19.230Z,59.76
2017-10-31T01:54:50.877Z,59.79
2017-10-31T01:55:22.530Z,59.81
2017-10-31T01:55:54.230Z,59.57
2017-10-31T01:56:25.886Z,59.86
2017-10-31T01:56:57.741Z,59.81
2017-10-31T01:57:29.403Z,59.92
2017-10-31T01:58:01.061Z,59.94
2017-10-31T01:58:32.745Z,59.97
2017-10-31T01:59:04.621Z,60.17
2017-10-31T01:59:36.270Z,60.27
2017-10-31T02:00:08.109Z,60.07
2017-10-31T02:00:39.761Z,60.09
2017-10-31T02:01:12.724Z,60.22
2017-10-31T02:01:44.374Z,60.44
2017-10-31T02:02:16.058Z,60.32
2017-10-31T02:02:47.710Z,60.41
2017-10-31T02:03:19.366Z,60.35
2017-10-31T02:03:51.211Z,60.48
2017-10-31T02:04:22.882Z,60.59
2017-10-31T02:04:54.831Z,60.50
2017-10-31T02:05:26.751Z,60.61
2017-10-31T02:05:58.423Z,60.77
2017-10-31T02:06:30.074Z,60.74
2017-10-31T02:07:01.717Z,60.75
2017-10-31T02:07:33.408Z,60.66
2017-10-31T02:08:05.054Z,60.70
2017-10-31T02:08:36.893Z,60.64
2017-10-31T02:09:08.581Z,60.64
2017-10-31T02:09:40.230Z,60.97
2017-10-31T02:10:11.877Z,60.88
2017-10-31T02:10:43.525Z,60.79
2017-10-31T02:11:15.457Z,60.87
2017-10-31T02:11:47.106Z,61.06
2017-10-31T02:12:18.793Z,61.02
2017-10-31T02:12:50.634Z,61.01
2017-10-31T02:13:22.286Z,61.08
2017-10-31T02:13:53.939Z,60.99
2017-10-31T02:14:25.614Z,61.14
2017-10-31T02:14:57.499Z,61.24
2017-10-31T02:15:29.513Z,61.27
2017-10-31T02:16:01.458Z,61.21
2017-10-31T02:16:33.145Z,61.21
2017-10-31T02:17:05.053Z,61.18
2017-10-31T02:17:36.704Z,61.17
2017-10-31T02:18:08.354Z,61.28
2017-10-31T02:18:40.006Z,61.25
2017-10-31T02:19:11.653Z,61.30
2017-10-31T02:19:43.302Z,61.29
2017-10-31T02:20:14.950Z,61.43
2017-10-31T02:20:46.597Z,61.49
2017-10-31T02:21:18.246Z,61.24
2017-10-31T02:21:49.889Z,61.44
2017-10-31T02:22:21.582Z,61.42
2017-10-31T02:22:53.230Z,61.39
2017-10-31T02:23:24.882Z,61.41
2017-10-31T02:23:56.537Z,61.56
2017-10-31T02:24:28.186Z,61.53
2017-10-31T02:24:59.833Z,61.49
2017-10-31T02:25:31.481Z,61.52
2017-10-31T02:26:03.130Z,61.48
2017-10-31T02:26:34.915Z,61.40
2017-10-31T02:27:06.566Z,61.46
2017-10-31T02:27:38.210Z,61.67
2017-10-31T02:28:09.854Z,61.48
2017-10-31T02:28:41.792Z,61.76
2017-10-31T02:29:13.442Z,61.86
2017-10-31T02:29:45.094Z,61.54
2017-10-31T02:30:16.744Z,61.64
2017-10-31T02:30:48.398Z,61.73
2017-10-31T02:31:20.045Z,61.75
2017-10-31T02:31:51.697Z,61.60
2017-10-31T02:32:23.590Z,61.58
2017-10-31T02:32:55.423Z,61.59
2017-10-31T02:33:27.182Z,61.66
2017-10-31T02:33:59.130Z,61.83
2017-10-31T02:34:30.785Z,61.73
2017-10-31T02:35:02.434Z,61.91
2017-10-31T02:35:34.081Z,61.66
2017-10-31T02:36:05.729Z,61.72
2017-10-31T02:36:37.538Z,61.80
2017-10-31T02:37:09.288Z,61.86
2017-10-31T02:37:40.942Z,61.66
2017-10-31T02:38:12.681Z,61.75
2017-10-31T02:38:44.375Z,61.94
2017-10-31T02:39:16.040Z,61.74
2017-10-31T02:39:47.806Z,62.07
2017-10-31T02:40:19.458Z,61.82
2017-10-31T02:40:51.106Z,61.71
2017-10-31T02:41:22.758Z,61.87
2017-10-31T02:41:54.403Z,62.02
2017-10-31T02:42:26.153Z,61.96
2017-10-31T02:42:57.805Z,61.88
2017-10-31T02:43:29.462Z,61.92
2017-10-31T02:44:01.248Z,61.97
2017-10-31T02:44:32.898Z,61.87
2017-10-31T02:45:04.550Z,61.87
2017-10-31T02:45:36.201Z,62.02
2017-10-31T02:46:07.853Z,61.73
2017-10-31T02:46:39.505Z,62.02
2017-10-31T02:47:11.155Z,61.89
2017-10-31T02:47:43.048Z,61.98
2017-10-31T02:48:14.702Z,62.01
2017-10-31T02:48:46.531Z,61.88
2017-10-31T02:49:18.282Z,62.07
2017-10-31T02:49:49.938Z,62.28
2017-10-31T02:50:21.590Z,62.51
2017-10-31T02:50:53.245Z,62.39
2017-10-31T02:51:25.053Z,62.30
2017-10-31T02:51:56.710Z,62.30
2017-10-31T02:52:28.399Z,62.38
2017-10-31T02:53:00.079Z,62.36
2017-10-31T02:53:31.770Z,62.39
2017-10-31T02:54:03.426Z,62.53
2017-10-31T02:54:35.314Z,62.36
2017-10-31T02:55:06.969Z,61.96
2017-10-31T02:55:38.618Z,62.21
2017-10-31T02:56:10.265Z,62.16
2017-10-31T02:56:41.922Z,62.01
2017-10-31T02:57:13.573Z,62.07
2017-10-31T02:57:45.229Z,62.24
2017-10-31T02:58:16.921Z,62.08
2017-10-31T02:58:48.570Z,62.11
2017-10-31T02:59:20.217Z,62.05
2017-10-31T02:59:51.867Z,61.96
2017-10-31T03:00:23.524Z,61.94
2017-10-31T03:00:55.193Z,61.76
2017-10-31T03:01:26.967Z,61.71
2017-10-31T03:01:58.634Z,61.48
2017-10-31T03:02:30.281Z,61.54
2017-10-31T03:03:02.133Z,61.64
2017-10-31T03:03:33.841Z,61.75
2017-10-31T03:04:05.489Z,61.40
2017-10-31T03:04:37.497Z,61.68
2017-10-31T03:05:09.382Z,61.78
2017-10-31T03:05:41.033Z,61.56
2017-10-31T03:06:12.874Z,61.32
2017-10-31T03:06:44.534Z,61.06
2017-10-31T03:07:16.185Z,61.33
2017-10-31T03:07:47.830Z,61.45
2017-10-31T03:08:19.542Z,61.43
2017-10-31T03:08:51.189Z,61.15
2017-10-31T03:09:22.839Z,61.04
2017-10-31T03:09:54.541Z,61.40
2017-10-31T03:10:26.190Z,60.97
2017-10-31T03:10:58.037Z,61.42
2017-10-31T03:11:30.053Z,60.99
2017-10-31T03:12:01.910Z,61.32
2017-10-31T03:12:33.596Z,61.48
2017-10-31T03:13:05.250Z,61.02
2017-10-31T03:13:36.902Z,61.12
2017-10-31T03:14:08.551Z,61.09
2017-10-31T03:14:40.203Z,60.74
2017-10-31T03:15:12.114Z,60.96
2017-10-31T03:15:44.062Z,61.19
2017-10-31T03:16:15.947Z,61.08
2017-10-31T03:16:47.597Z,61.08
2017-10-31T03:17:19.252Z,61.28
2017-10-31T03:17:50.938Z,61.31
2017-10-31T03:18:22.589Z,61.44
2017-10-31T03:18:54.238Z,61.74
2017-10-31T03:19:25.893Z,61.59
2017-10-31T03:19:57.541Z,61.79
2017-10-31T03:20:29.417Z,61.75
2017-10-31T03:21:01.123Z,61.60
2017-10-31T03:21:32.766Z,61.78
2017-10-31T03:22:04.413Z,61.69
2017-10-31T03:22:36.302Z,61.53
2017-10-31T03:23:07.970Z,61.45
2017-10-31T03:23:39.849Z,61.37
2017-10-31T03:24:11.498Z,61.31
2017-10-31T03:24:43.147Z,61.29
2017-10-31T03:25:14.801Z,61.43
2017-10-31T03:25:46.487Z,61.47
2017-10-31T03:26:18.137Z,61.49
2017-10-31T03:26:49.785Z,61.29
2017-10-31T03:27:21.433Z,61.38
2017-10-31T03:27:53.130Z,61.66
2017-10-31T03:28:25.004Z,61.53
2017-10-31T03:28:56.653Z,61.52
2017-10-31T03:29:28.305Z,61.89
2017-10-31T03:29:59.949Z,61.78
2017-10-31T03:30:31.597Z,61.80
2017-10-31T03:31:03.247Z,61.82
2017-10-31T03:31:34.909Z,62.17
2017-10-31T03:32:06.557Z,62.09
2017-10-31T03:32:38.399Z,62.11
2017-10-31T03:33:10.396Z,62.23
2017-10-31T03:33:42.045Z,62.12
2017-10-31T03:34:13.694Z,62.11
2017-10-31T03:34:45.350Z,62.14
2017-10-31T03:35:16.998Z,62.15
2017-10-31T03:35:48.649Z,62.30
2017-10-31T03:36:20.299Z,62.11
2017-10-31T03:36:51.949Z,62.28
2017-10-31T03:37:23.835Z,62.27
2017-10-31T03:37:55.538Z,62.41
2017-10-31T03:38:27.190Z,62.29
2017-10-31T03:38:58.968Z,62.13
2017-10-31T03:39:30.622Z,62.14
2017-10-31T03:40:02.560Z,62.09
2017-10-31T03:40:34.213Z,62.23
2017-10-31T03:41:05.857Z,62.24
2017-10-31T03:41:37.501Z,62.31
2017-10-31T03:42:09.149Z,62.41
2017-10-31T03:42:40.793Z,62.18
2017-10-31T03:43:12.486Z,62.16
2017-10-31T03:43:44.155Z,62.22
2017-10-31T03:44:15.810Z,62.28
2017-10-31T03:44:47.457Z,62.26
2017-10-31T03:45:19.281Z,62.25
2017-10-31T03:45:51.230Z,62.62
2017-10-31T03:46:22.978Z,62.66
2017-10-31T03:46:54.634Z,62.29
2017-10-31T03:47:26.290Z,62.36
2017-10-31T03:47:58.191Z,62.41
2017-10-31T03:48:29.854Z,62.35
2017-10-31T03:49:01.749Z,62.41
2017-10-31T03:49:33.402Z,62.28
2017-10-31T03:50:05.087Z,62.37
2017-10-31T03:50:36.737Z,62.38
2017-10-31T03:51:08.390Z,62.62
2017-10-31T03:51:40.038Z,62.38
2017-10-31T03:52:11.690Z,62.48
2017-10-31T03:52:43.337Z,62.48
2017-10-31T03:53:15.246Z,62.66
2017-10-31T03:53:47.087Z,62.83
2017-10-31T03:54:18.733Z,62.49
2017-10-31T03:54:50.479Z,62.47
2017-10-31T03:55:22.138Z,62.65
2017-10-31T03:55:53.782Z,62.57
2017-10-31T03:56:25.433Z,62.88
2017-10-31T03:56:57.081Z,62.93
2017-10-31T03:57:28.725Z,62.66
2017-10-31T03:58:00.637Z,62.79
2017-10-31T03:58:32.285Z,62.70
2017-10-31T03:59:03.933Z,62.86
2017-10-31T03:59:35.581Z,62.87
2017-10-31T04:00:07.234Z,62.78
2017-10-31T04:00:38.878Z,62.60
2017-10-31T04:01:10.525Z,62.78
2017-10-31T04:01:42.169Z,62.85
2017-10-31T04:02:13.818Z,62.81
2017-10-31T04:02:45.473Z,62.90
2017-10-31T04:03:17.174Z,62.76
2017-10-31T04:03:48.825Z,62.86
2017-10-31T04:04:20.471Z,62.66
2017-10-31T04:04:52.117Z,62.85
2017-10-31T04:05:23.773Z,62.87
2017-10-31T04:05:55.421Z,62.84
2017-10-31T04:06:27.074Z,63.06
2017-10-31T04:06:58.726Z,62.87
2017-10-31T04:07:30.499Z,62.89
2017-10-31T04:08:02.153Z,62.76
2017-10-31T04:08:33.841Z,62.75
2017-10-31T04:09:05.732Z,62.70
2017-10-31T04:09:37.383Z,62.62
2017-10-31T04:10:09.214Z,62.85
2017-10-31T04:10:40.870Z,62.73
2017-10-31T04:11:12.518Z,62.74
2017-10-31T04:11:44.208Z,62.81
2017-10-31T04:12:15.890Z,62.67
2017-10-31T04:12:47.541Z,62.64
2017-10-31T04:13:19.190Z,62.76
2017-10-31T04:13:50.846Z,62.96
2017-10-31T04:14:22.498Z,62.84
2017-10-31T04:14:54.145Z,62.71
2017-10-31T04:15:25.801Z,62.70
2017-10-31T04:15:57.649Z,62.71
2017-10-31T04:16:29.308Z,62.67
2017-10-31T04:17:01.290Z,62.72
2017-10-31T04:17:32.942Z,62.43
2017-10-31T04:18:04.594Z,62.71
2017-10-31T04:18:36.515Z,62.71
2017-10-31T04:19:08.209Z,62.74
2017-10-31T04:19:39.863Z,62.77
2017-10-31T04:20:11.721Z,62.76
2017-10-31T04:20:43.391Z,62.87
2017-10-31T04:21:15.042Z,62.87
2017-10-31T04:21:46.693Z,62.86
2017-10-31T04:22:18.346Z,62.74
2017-10-31T04:22:49.997Z,62.78
2017-10-31T04:23:21.650Z,62.85
2017-10-31T04:23:53.302Z,62.91
2017-10-31T04:24:25.193Z,62.98
2017-10-31T04:24:56.841Z,62.98
2017-10-31T04:25:28.485Z,62.87
2017-10-31T04:26:00.174Z,62.64
2017-10-31T04:26:32.017Z,62.64
2017-10-31T04:27:04.014Z,62.81
2017-10-31T04:27:35.664Z,62.60
2017-10-31T04:28:07.310Z,62.70
2017-10-31T04:28:38.961Z,62.77
2017-10-31T04:29:10.609Z,62.83
2017-10-31T04:29:42.261Z,62.69
2017-10-31T04:30:13.918Z,62.65
2017-10-31T04:30:45.571Z,62.51
2017-10-31T04:31:17.222Z,62.48
2017-10-31T04:31:49.100Z,62.48
2017-10-31T04:32:20.755Z,62.49
2017-10-31T04:32:52.405Z,62.50
2017-10-31T04:33:24.054Z,62.34
2017-10-31T04:33:55.973Z,62.44
2017-10-31T04:34:27.625Z,62.48
2017-10-31T04:34:59.468Z,62.47
2017-10-31T04:35:31.121Z,62.48
2017-10-31T04:36:02.790Z,62.28
2017-10-31T04:36:34.788Z,62.29
2017-10-31T04:37:06.438Z,62.34
2017-10-31T04:37:38.108Z,62.31
2017-10-31T04:38:09.758Z,62.39
2017-10-31T04:38:41.401Z,62.33
2017-10-31T04:39:13.049Z,62.15
2017-10-31T04:39:44.702Z,62.11
2017-10-31T04:40:16.353Z,62.27
2017-10-31T04:40:48.010Z,62.28
2017-10-31T04:41:19.662Z,62.38
2017-10-31T04:41:51.365Z,62.18
2017-10-31T04:42:23.020Z,62.18
2017-10-31T04:42:54.807Z,62.16
2017-10-31T04:43:26.478Z,62.41
2017-10-31T04:43:58.178Z,62.31
2017-10-31T04:44:29.826Z,62.39
2017-10-31T04:45:01.691Z,62.59
2017-10-31T04:45:33.354Z,62.45
2017-10-31T04:46:05.009Z,62.54
2017-10-31T04:46:36.665Z,62.59
2017-10-31T04:47:08.556Z,62.68
2017-10-31T04:47:40.207Z,62.62
2017-10-31T04:48:11.857Z,62.59
2017-10-31T04:48:43.502Z,62.41
2017-10-31T04:49:15.431Z,62.48
2017-10-31T04:49:47.081Z,62.56
2017-10-31T04:50:18.730Z,62.49
2017-10-31T04:50:50.374Z,62.56
2017-10-31T04:51:22.026Z,62.52
2017-10-31T04:51:53.677Z,62.60
2017-10-31T04:52:25.591Z,62.51
2017-10-31T04:52:57.291Z,62.38
2017-10-31T04:53:29.181Z,62.41
2017-10-31T04:54:00.833Z,62.38
2017-10-31T04:54:32.486Z,62.46
2017-10-31T04:55:04.137Z,62.49
2017-10-31T04:55:35.786Z,62.45
2017-10-31T04:56:07.437Z,62.47
2017-10-31T04:56:39.090Z,62.71
2017-10-31T04:57:10.738Z,62.80
2017-10-31T04:57:42.389Z,62.62
2017-10-31T04:58:14.073Z,62.55
2017-10-31T04:58:45.718Z,62.60
2017-10-31T04:59:17.549Z,62.64
2017-10-31T04:59:49.201Z,62.84
2017-10-31T05:00:20.854Z,62.59
2017-10-31T05:00:52.502Z,62.56
2017-10-31T05:01:24.316Z,62.63
2017-10-31T05:01:56.065Z,62.46
2017-10-31T05:02:28.016Z,62.73
2017-10-31T05:02:59.713Z,62.67
2017-10-31T05:03:31.605Z,62.84
2017-10-31T05:04:03.485Z,62.85
2017-10-31T05:04:35.133Z,63.12
2017-10-31T05:05:06.782Z,62.95
2017-10-31T05:05:38.441Z,63.17
2017-10-31T05:06:10.123Z,63.15
2017-10-31T05:06:42.000Z,63.23
2017-10-31T05:07:13.713Z,63.24
2017-10-31T05:07:45.385Z,63.21
2017-10-31T05:08:17.030Z,63.20
2017-10-31T05:08:48.678Z,63.39
2017-10-31T05:09:20.326Z,63.46
2017-10-31T05:09:51.973Z,63.31
2017-10-31T05:10:23.769Z,63.59
2017-10-31T05:10:55.421Z,63.37
2017-10-31T05:11:27.065Z,63.42
2017-10-31T05:11:58.714Z,63.46
2017-10-31T05:12:30.436Z,63.48
2017-10-31T05:13:02.085Z,63.58
2017-10-31T05:13:33.733Z,63.53
2017-10-31T05:14:05.382Z,63.61
2017-10-31T05:14:37.033Z,63.72
2017-10-31T05:15:08.681Z,63.70
2017-10-31T05:15:40.329Z,63.82
2017-10-31T05:16:11.978Z,63.28
2017-10-31T05:16:43.633Z,63.49
2017-10-31T05:17:15.294Z,63.60
2017-10-31T05:17:46.982Z,63.66
2017-10-31T05:18:18.809Z,63.20
2017-10-31T05:18:50.459Z,63.41
2017-10-31T05:19:22.114Z,63.43
2017-10-31T05:19:54.041Z,63.29
2017-10-31T05:20:25.694Z,63.22
2017-10-31T05:20:57.346Z,63.49
2017-10-31T05:21:28.999Z,63.36
2017-10-31T05:22:00.649Z,63.40
2017-10-31T05:22:32.297Z,63.40
2017-10-31T05:23:04.199Z,63.56
2017-10-31T05:23:36.075Z,63.42
2017-10-31T05:24:08.049Z,63.61
2017-10-31T05:24:39.702Z,63.58
2017-10-31T05:25:11.381Z,63.56
2017-10-31T05:25:43.037Z,63.60
2017-10-31T05:26:14.717Z,63.65
2017-10-31T05:27:24.397Z,63.55
2017-10-31T05:27:56.263Z,63.52
2017-10-31T05:28:27.953Z,63.53
2017-10-31T05:28:59.633Z,63.77
2017-10-31T05:29:31.321Z,63.65
2017-10-31T05:30:02.979Z,63.83
2017-10-31T05:30:34.866Z,63.54
2017-10-31T05:31:06.730Z,63.48
2017-10-31T05:31:38.382Z,63.59
2017-10-31T05:32:10.026Z,63.55
2017-10-31T05:32:41.673Z,63.89
2017-10-31T05:33:13.322Z,63.77
2017-10-31T05:33:44.974Z,63.75
2017-10-31T05:34:16.625Z,63.96
2017-10-31T05:34:48.318Z,63.72
2017-10-31T05:35:19.961Z,63.46
2017-10-31T05:35:51.609Z,63.46
2017-10-31T05:36:23.266Z,63.57
2017-10-31T05:36:54.918Z,63.73
2017-10-31T05:37:26.570Z,63.57
2017-10-31T05:37:58.359Z,63.65
2017-10-31T05:38:30.110Z,63.61
2017-10-31T05:39:01.762Z,63.79
2017-10-31T05:39:33.466Z,63.45
2017-10-31T05:40:05.343Z,63.55
2017-10-31T05:40:36.994Z,63.58
2017-10-31T05:41:08.645Z,63.42
2017-10-31T05:41:40.298Z,63.49
2017-10-31T05:42:11.969Z,63.30
2017-10-31T05:42:43.628Z,63.55
2017-10-31T05:43:15.508Z,63.58
2017-10-31T05:43:47.173Z,63.58
2017-10-31T05:44:18.820Z,63.60
2017-10-31T05:44:50.735Z,63.43
2017-10-31T05:45:22.661Z,63.39
2017-10-31T05:45:54.632Z,63.47
2017-10-31T05:46:26.282Z,63.65
2017-10-31T05:46:57.945Z,63.60
2017-10-31T05:47:29.597Z,63.66
2017-10-31T05:48:01.238Z,63.41
2017-10-31T05:48:32.894Z,63.33
2017-10-31T05:49:04.546Z,63.41
2017-10-31T05:49:36.197Z,63.34
2017-10-31T05:50:07.890Z,63.19
2017-10-31T05:50:39.534Z,63.26
2017-10-31T05:51:11.185Z,63.27
2017-10-31T05:51:43.000Z,62.94
2017-10-31T05:52:14.649Z,63.02
2017-10-31T05:52:46.301Z,62.89
2017-10-31T05:53:18.233Z,62.91
2017-10-31T05:53:49.886Z,62.78
2017-10-31T05:54:21.537Z,62.65
2017-10-31T05:54:53.185Z,62.84
2017-10-31T05:55:24.831Z,62.93
2017-10-31T05:55:56.479Z,62.67
2017-10-31T05:56:28.302Z,62.66
2017-10-31T05:56:59.997Z,62.82
2017-10-31T05:57:31.675Z,62.62
2017-10-31T05:58:03.326Z,62.51
2017-10-31T05:58:34.969Z,62.61
2017-10-31T05:59:06.621Z,62.63
2017-10-31T05:59:38.277Z,62.50
2017-10-31T06:00:09.925Z,62.53
2017-10-31T06:00:41.834Z,62.61
2017-10-31T06:01:13.716Z,62.73
2017-10-31T06:01:45.362Z,62.76
2017-10-31T06:02:17.009Z,62.57
2017-10-31T06:02:48.657Z,62.61
2017-10-31T06:03:20.305Z,62.90
2017-10-31T06:03:51.961Z,62.51
2017-10-31T06:04:23.662Z,62.72
2017-10-31T06:04:55.306Z,62.65
2017-10-31T06:05:26.949Z,62.92
2017-10-31T06:05:58.598Z,63.01
2017-10-31T06:06:30.245Z,62.64
2017-10-31T06:07:01.893Z,62.87
2017-10-31T06:07:33.545Z,62.82
2017-10-31T06:08:05.396Z,62.78
2017-10-31T06:08:37.083Z,62.56
2017-10-31T06:09:08.735Z,62.26
2017-10-31T06:09:40.425Z,62.38
2017-10-31T06:10:12.312Z,62.48
2017-10-31T06:10:43.962Z,62.70
2017-10-31T06:11:15.609Z,63.04
2017-10-31T06:11:47.253Z,63.02
2017-10-31T06:12:18.902Z,62.98
2017-10-31T06:12:50.554Z,62.87
2017-10-31T06:13:22.383Z,62.96
2017-10-31T06:13:54.380Z,62.78
2017-10-31T06:14:26.397Z,62.79
2017-10-31T06:14:58.042Z,62.77
2017-10-31T06:15:29.689Z,62.71
2017-10-31T06:16:01.342Z,63.11
2017-10-31T06:16:32.993Z,63.06
2017-10-31T06:17:04.884Z,63.17
2017-10-31T06:17:36.543Z,63.24
2017-10-31T06:18:08.417Z,63.32
2017-10-31T06:18:40.070Z,63.36
2017-10-31T06:19:11.759Z,63.49
2017-10-31T06:19:43.409Z,63.46
2017-10-31T06:20:15.097Z,63.37
2017-10-31T06:20:46.751Z,63.49
2017-10-31T06:21:18.458Z,63.41
2017-10-31T06:21:55.833Z,63.45
2017-10-31T06:22:33.106Z,63.50
2017-10-31T06:23:10.359Z,63.54
2017-10-31T06:23:47.634Z,63.29
2017-10-31T06:24:24.909Z,63.59
2017-10-31T06:25:02.480Z,63.33
2017-10-31T06:25:39.730Z,63.46
2017-10-31T06:26:17.069Z,63.58
2017-10-31T06:26:54.345Z,63.35
2017-10-31T06:27:31.598Z,63.41
2017-10-31T06:28:08.917Z,63.67
2017-10-31T06:28:46.170Z,63.62
2017-10-31T06:29:23.425Z,63.70
2017-10-31T06:30:00.637Z,63.73
2017-10-31T06:30:37.921Z,63.86
2017-10-31T06:31:15.182Z,64.20
2017-10-31T06:31:52.505Z,63.84
2017-10-31T06:32:24.153Z,63.86
2017-10-31T06:32:55.802Z,63.88
2017-10-31T06:33:27.446Z,64.21
2017-10-31T06:33:59.094Z,64.26
2017-10-31T06:34:30.746Z,64.27
2017-10-31T06:35:02.401Z,64.63
2017-10-31T06:35:34.098Z,64.13
2017-10-31T06:36:05.749Z,64.32
2017-10-31T06:36:37.393Z,64.37
2017-10-31T06:37:09.040Z,64.27
2017-10-31T06:37:40.689Z,64.26
2017-10-31T06:38:12.345Z,64.41
2017-10-31T06:38:44.045Z,64.32
2017-10-31T06:39:15.708Z,64.42
2017-10-31T06:39:47.364Z,64.49
2017-10-31T06:40:19.016Z,64.77
2017-10-31T06:40:50.714Z,64.58
2017-10-31T06:41:22.550Z,64.78
2017-10-31T06:41:54.510Z,64.87
2017-10-31T06:42:26.228Z,64.75
2017-10-31T06:42:58.101Z,64.74
2017-10-31T06:43:29.753Z,64.82
2017-10-31T06:44:02.026Z,64.79
2017-10-31T06:44:33.675Z,64.87
2017-10-31T06:45:05.323Z,64.90
2017-10-31T06:45:37.212Z,64.74
2017-10-31T06:46:08.875Z,64.77
2017-10-31T06:46:40.538Z,64.73
2017-10-31T06:47:12.190Z,64.75
2017-10-31T06:47:43.838Z,64.71
2017-10-31T06:48:15.490Z,64.71
2017-10-31T06:48:47.146Z,64.70
2017-10-31T06:49:19.033Z,64.62
2017-10-31T06:49:50.684Z,64.87
2017-10-31T06:50:22.624Z,64.58